sensor_id;sensor_type;location;lat;lon;timestamp;pressure;altitude;pressure_sealevel;temperature;humidity
50732;BME280;36700;50.488;2.544;2023-09-19T00:00:14;100642.06;;;21.51;56.82
50732;BME280;36700;50.488;2.544;2023-09-19T00:02:40;100645.91;;;21.50;57.01
50732;BME280;36700;50.488;2.544;2023-09-19T00:05:06;100648.63;;;21.50;57.18
50732;BME280;36700;50.488;2.544;2023-09-19T00:07:34;100645.38;;;21.48;56.52
50732;BME280;36700;50.488;2.544;2023-09-19T00:10:02;100642.91;;;21.46;56.90
50732;BME280;36700;50.488;2.544;2023-09-19T00:12:28;100646.19;;;21.48;56.86
50732;BME280;36700;50.488;2.544;2023-09-19T00:14:54;100653.84;;;21.46;56.42
50732;BME280;36700;50.488;2.544;2023-09-19T00:17:22;100653.84;;;21.46;56.28
50732;BME280;36700;50.488;2.544;2023-09-19T00:19:48;100653.03;;;21.46;56.82
50732;BME280;36700;50.488;2.544;2023-09-19T00:22:14;100653.31;;;21.44;56.71
50732;BME280;36700;50.488;2.544;2023-09-19T00:24:41;100659.59;;;21.45;56.95
50732;BME280;36700;50.488;2.544;2023-09-19T00:27:08;100655.47;;;21.42;55.99
50732;BME280;36700;50.488;2.544;2023-09-19T00:29:34;100656.31;;;21.43;56.53
50732;BME280;36700;50.488;2.544;2023-09-19T00:32:00;100655.47;;;21.42;56.36
50732;BME280;36700;50.488;2.544;2023-09-19T00:34:26;100651.94;;;21.42;56.08
50732;BME280;36700;50.488;2.544;2023-09-19T00:36:52;100656.59;;;21.41;56.43
50732;BME280;36700;50.488;2.544;2023-09-19T00:39:18;100660.41;;;21.40;56.70
50732;BME280;36700;50.488;2.544;2023-09-19T00:41:46;100659.63;;;21.39;56.19
50732;BME280;36700;50.488;2.544;2023-09-19T00:44:11;100663.16;;;21.40;56.08
50732;BME280;36700;50.488;2.544;2023-09-19T00:46:37;100667.00;;;21.39;56.13
50732;BME280;36700;50.488;2.544;2023-09-19T00:49:03;100661.78;;;21.37;56.06
50732;BME280;36700;50.488;2.544;2023-09-19T00:51:29;100661.00;;;21.37;56.04
50732;BME280;36700;50.488;2.544;2023-09-19T00:53:55;100660.16;;;21.36;55.82
50732;BME280;36700;50.488;2.544;2023-09-19T00:56:22;100662.06;;;21.36;56.37
50732;BME280;36700;50.488;2.544;2023-09-19T00:58:48;100674.94;;;21.35;56.05
50732;BME280;36700;50.488;2.544;2023-09-19T01:01:14;100672.19;;;21.35;55.79
50732;BME280;36700;50.488;2.544;2023-09-19T01:03:41;100668.94;;;21.33;56.07
50732;BME280;36700;50.488;2.544;2023-09-19T01:06:07;100668.94;;;21.33;55.84
50732;BME280;36700;50.488;2.544;2023-09-19T01:08:35;100674.66;;;21.32;55.82
50732;BME280;36700;50.488;2.544;2023-09-19T01:11:11;100683.66;;;21.32;55.81
50732;BME280;36700;50.488;2.544;2023-09-19T01:16:50;100679.31;;;21.31;55.97
50732;BME280;36700;50.488;2.544;2023-09-19T01:22:00;100684.25;;;21.29;55.92
50732;BME280;36700;50.488;2.544;2023-09-19T01:24:52;100682.31;;;21.30;55.80
50732;BME280;36700;50.488;2.544;2023-09-19T01:29:48;100691.59;;;21.23;55.96
50732;BME280;36700;50.488;2.544;2023-09-19T01:32:19;100703.66;;;21.28;55.72
50732;BME280;36700;50.488;2.544;2023-09-19T01:34:53;100699.53;;;21.25;56.35
50732;BME280;36700;50.488;2.544;2023-09-19T01:37:21;100697.63;;;21.25;55.75
50732;BME280;36700;50.488;2.544;2023-09-19T01:39:53;100697.91;;;21.24;55.71
50732;BME280;36700;50.488;2.544;2023-09-19T01:45:11;100690.81;;;21.23;55.66
50732;BME280;36700;50.488;2.544;2023-09-19T01:47:44;100692.69;;;21.22;55.85
50732;BME280;36700;50.488;2.544;2023-09-19T01:52:47;100693.81;;;21.21;55.86
50732;BME280;36700;50.488;2.544;2023-09-19T01:55:15;100682.31;;;21.19;55.83
50732;BME280;36700;50.488;2.544;2023-09-19T01:57:57;100683.13;;;21.20;55.84
50732;BME280;36700;50.488;2.544;2023-09-19T02:00:25;100679.59;;;21.19;56.03
50732;BME280;36700;50.488;2.544;2023-09-19T02:02:53;100676.28;;;21.17;56.29
50732;BME280;36700;50.488;2.544;2023-09-19T02:05:25;100679.03;;;21.17;56.31
50732;BME280;36700;50.488;2.544;2023-09-19T02:07:51;100675.50;;;21.17;56.07
50732;BME280;36700;50.488;2.544;2023-09-19T02:10:19;100678.50;;;21.15;55.75
50732;BME280;36700;50.488;2.544;2023-09-19T02:12:44;100688.06;;;21.12;55.77
50732;BME280;36700;50.488;2.544;2023-09-19T02:15:11;100683.16;;;21.09;56.16
50732;BME280;36700;50.488;2.544;2023-09-19T02:17:37;100673.28;;;21.08;55.80
50732;BME280;36700;50.488;2.544;2023-09-19T02:20:03;100676.31;;;21.07;56.00
50732;BME280;36700;50.488;2.544;2023-09-19T02:22:36;100677.13;;;21.07;56.04
50732;BME280;36700;50.488;2.544;2023-09-19T02:25:03;100679.03;;;21.07;56.11
50732;BME280;36700;50.488;2.544;2023-09-19T02:27:33;100680.16;;;21.06;56.12
50732;BME280;36700;50.488;2.544;2023-09-19T02:29:59;100680.41;;;21.04;56.01
50732;BME280;36700;50.488;2.544;2023-09-19T02:32:30;100678.47;;;21.05;56.01
50732;BME280;36700;50.488;2.544;2023-09-19T02:34:57;100685.88;;;21.04;56.12
50732;BME280;36700;50.488;2.544;2023-09-19T02:37:26;100696.81;;;21.04;55.74
50732;BME280;36700;50.488;2.544;2023-09-19T02:39:52;100686.16;;;21.03;55.94
50732;BME280;36700;50.488;2.544;2023-09-19T02:42:18;100696.25;;;21.02;56.07
50732;BME280;36700;50.488;2.544;2023-09-19T02:44:44;100705.28;;;21.03;56.47
50732;BME280;36700;50.488;2.544;2023-09-19T02:47:12;100698.19;;;21.02;56.40
50732;BME280;36700;50.488;2.544;2023-09-19T02:49:40;100703.91;;;21.00;55.89
50732;BME280;36700;50.488;2.544;2023-09-19T02:52:08;100702.28;;;20.99;56.02
50732;BME280;36700;50.488;2.544;2023-09-19T02:54:34;100698.72;;;20.98;56.06
50732;BME280;36700;50.488;2.544;2023-09-19T02:57:00;100695.97;;;20.98;56.28
50732;BME280;36700;50.488;2.544;2023-09-19T02:59:26;100696.25;;;20.97;56.92
50732;BME280;36700;50.488;2.544;2023-09-19T03:01:52;100697.06;;;20.97;56.35
50732;BME280;36700;50.488;2.544;2023-09-19T03:04:20;100693.53;;;20.97;56.66
50732;BME280;36700;50.488;2.544;2023-09-19T03:06:46;100685.03;;;20.93;56.39
50732;BME280;36700;50.488;2.544;2023-09-19T03:09:14;100687.50;;;20.95;56.90
50732;BME280;36700;50.488;2.544;2023-09-19T03:11:41;100692.97;;;20.95;56.35
50732;BME280;36700;50.488;2.544;2023-09-19T03:14:08;100684.22;;;20.93;56.93
50732;BME280;36700;50.488;2.544;2023-09-19T03:16:35;100689.69;;;20.93;56.79
50732;BME280;36700;50.488;2.544;2023-09-19T03:19:03;100696.25;;;20.92;56.93
50732;BME280;36700;50.488;2.544;2023-09-19T03:21:29;100692.69;;;20.91;56.94
50732;BME280;36700;50.488;2.544;2023-09-19T03:23:56;100698.16;;;20.91;56.68
50732;BME280;36700;50.488;2.544;2023-09-19T03:26:22;100704.72;;;20.90;56.94
50732;BME280;36700;50.488;2.544;2023-09-19T03:28:48;100712.91;;;20.90;56.36
50732;BME280;36700;50.488;2.544;2023-09-19T03:31:14;100712.91;;;20.90;56.50
50732;BME280;36700;50.488;2.544;2023-09-19T03:33:40;100716.75;;;20.89;56.58
50732;BME280;36700;50.488;2.544;2023-09-19T03:36:06;100716.75;;;20.89;56.77
50732;BME280;36700;50.488;2.544;2023-09-19T03:38:33;100716.75;;;20.89;56.70
50732;BME280;36700;50.488;2.544;2023-09-19T03:41:02;100717.00;;;20.88;56.72
50732;BME280;36700;50.488;2.544;2023-09-19T03:43:28;100724.38;;;20.87;57.23
50732;BME280;36700;50.488;2.544;2023-09-19T03:45:54;100727.13;;;20.87;57.23
50732;BME280;36700;50.488;2.544;2023-09-19T03:48:20;100722.75;;;20.86;56.97
50732;BME280;36700;50.488;2.544;2023-09-19T03:50:47;100711.00;;;20.85;56.94
50732;BME280;36700;50.488;2.544;2023-09-19T03:53:13;100713.75;;;20.85;56.73
50732;BME280;36700;50.488;2.544;2023-09-19T03:55:39;100710.19;;;20.85;57.21
50732;BME280;36700;50.488;2.544;2023-09-19T03:58:05;100719.44;;;20.84;56.85
50732;BME280;36700;50.488;2.544;2023-09-19T04:00:31;100706.63;;;20.84;57.13
50732;BME280;36700;50.488;2.544;2023-09-19T04:02:57;100721.34;;;20.83;57.18
50732;BME280;36700;50.488;2.544;2023-09-19T04:05:24;100716.16;;;20.82;56.81
50732;BME280;36700;50.488;2.544;2023-09-19T04:07:49;100712.59;;;20.81;57.07
50732;BME280;36700;50.488;2.544;2023-09-19T04:10:19;100709.03;;;20.81;57.39
50732;BME280;36700;50.488;2.544;2023-09-19T04:12:55;100715.34;;;20.81;56.82
50732;BME280;36700;50.488;2.544;2023-09-19T04:15:22;100713.69;;;20.80;57.19
50732;BME280;36700;50.488;2.544;2023-09-19T04:17:51;100715.59;;;20.80;56.90
50732;BME280;36700;50.488;2.544;2023-09-19T04:20:18;100715.59;;;20.80;57.27
50732;BME280;36700;50.488;2.544;2023-09-19T04:22:51;100708.75;;;20.77;57.15
50732;BME280;36700;50.488;2.544;2023-09-19T04:25:17;100713.97;;;20.79;57.33
50732;BME280;36700;50.488;2.544;2023-09-19T04:27:44;100715.06;;;20.78;57.42
50732;BME280;36700;50.488;2.544;2023-09-19T04:30:10;100716.94;;;20.77;57.28
50732;BME280;36700;50.488;2.544;2023-09-19T04:32:38;100719.44;;;20.79;57.07
50732;BME280;36700;50.488;2.544;2023-09-19T04:35:06;100719.69;;;20.77;57.52
50732;BME280;36700;50.488;2.544;2023-09-19T04:37:38;100724.34;;;20.77;56.88
50732;BME280;36700;50.488;2.544;2023-09-19T04:40:09;100728.19;;;20.76;56.94
50732;BME280;36700;50.488;2.544;2023-09-19T04:42:43;100730.91;;;20.76;57.00
50732;BME280;36700;50.488;2.544;2023-09-19T04:45:10;100740.16;;;20.75;57.20
50732;BME280;36700;50.488;2.544;2023-09-19T04:47:37;100731.16;;;20.74;57.43
50732;BME280;36700;50.488;2.544;2023-09-19T04:50:08;100727.59;;;20.74;56.99
50732;BME280;36700;50.488;2.544;2023-09-19T04:52:41;100733.06;;;20.74;57.28
50732;BME280;36700;50.488;2.544;2023-09-19T04:55:14;100737.72;;;20.73;57.25
50732;BME280;36700;50.488;2.544;2023-09-19T04:57:44;100736.06;;;20.72;57.26
50732;BME280;36700;50.488;2.544;2023-09-19T05:00:18;100727.88;;;20.72;57.51
50732;BME280;36700;50.488;2.544;2023-09-19T05:02:45;100729.78;;;20.71;57.52
50732;BME280;36700;50.488;2.544;2023-09-19T05:05:12;100732.78;;;20.70;57.21
50732;BME280;36700;50.488;2.544;2023-09-19T05:07:40;100735.78;;;20.68;57.28
50732;BME280;36700;50.488;2.544;2023-09-19T05:10:07;100742.63;;;20.71;57.58
50732;BME280;36700;50.488;2.544;2023-09-19T05:12:34;100742.91;;;20.69;57.51
50732;BME280;36700;50.488;2.544;2023-09-19T05:15:04;100732.25;;;20.68;57.28
50732;BME280;36700;50.488;2.544;2023-09-19T05:17:30;100736.63;;;20.69;57.32
50732;BME280;36700;50.488;2.544;2023-09-19T05:19:57;100738.50;;;20.68;57.62
50732;BME280;36700;50.488;2.544;2023-09-19T05:22:38;100744.81;;;20.69;57.75
50732;BME280;36700;50.488;2.544;2023-09-19T05:25:07;100737.72;;;20.68;57.30
50732;BME280;36700;50.488;2.544;2023-09-19T05:27:33;100730.63;;;20.67;57.65
50732;BME280;36700;50.488;2.544;2023-09-19T05:29:59;100730.63;;;20.67;57.31
50732;BME280;36700;50.488;2.544;2023-09-19T05:32:25;100731.41;;;20.67;57.13
50732;BME280;36700;50.488;2.544;2023-09-19T05:34:52;100731.38;;;20.47;56.13
50732;BME280;36700;50.488;2.544;2023-09-19T05:37:19;100739.00;;;20.50;56.77
50732;BME280;36700;50.488;2.544;2023-09-19T05:39:45;100741.72;;;20.50;56.44
50732;BME280;36700;50.488;2.544;2023-09-19T05:42:11;100731.06;;;20.43;56.02
50732;BME280;36700;50.488;2.544;2023-09-19T05:44:37;100735.13;;;20.35;56.52
50732;BME280;36700;50.488;2.544;2023-09-19T05:47:04;100728.28;;;20.33;56.98
50732;BME280;36700;50.488;2.544;2023-09-19T05:49:30;100737.88;;;20.35;57.01
50732;BME280;36700;50.488;2.544;2023-09-19T05:51:55;100734.31;;;20.40;56.41
50732;BME280;36700;50.488;2.544;2023-09-19T05:54:22;100736.25;;;20.39;56.53
50732;BME280;36700;50.488;2.544;2023-09-19T05:56:48;100731.34;;;20.41;56.40
50732;BME280;36700;50.488;2.544;2023-09-19T05:59:14;100737.34;;;20.43;56.58
50732;BME280;36700;50.488;2.544;2023-09-19T06:01:43;100743.09;;;20.42;56.98
50732;BME280;36700;50.488;2.544;2023-09-19T06:04:09;100743.09;;;20.42;56.54
50732;BME280;36700;50.488;2.544;2023-09-19T06:06:36;100738.44;;;20.42;56.67
50732;BME280;36700;50.488;2.544;2023-09-19T06:09:05;100745.81;;;20.42;56.96
50732;BME280;36700;50.488;2.544;2023-09-19T06:11:31;100747.72;;;20.41;56.68
50732;BME280;36700;50.488;2.544;2023-09-19T06:14:01;100756.75;;;20.42;56.67
50732;BME280;36700;50.488;2.544;2023-09-19T06:16:31;100758.66;;;20.41;56.83
50732;BME280;36700;50.488;2.544;2023-09-19T06:18:59;100748.56;;;20.42;57.42
50732;BME280;36700;50.488;2.544;2023-09-19T06:21:28;100752.34;;;20.41;57.08
50732;BME280;36700;50.488;2.544;2023-09-19T06:23:54;100754.03;;;20.42;57.01
50732;BME280;36700;50.488;2.544;2023-09-19T06:26:20;100751.28;;;20.42;57.51
50732;BME280;36700;50.488;2.544;2023-09-19T06:28:45;100752.34;;;20.41;57.26
50732;BME280;36700;50.488;2.544;2023-09-19T06:31:11;100750.72;;;20.40;57.02
50732;BME280;36700;50.488;2.544;2023-09-19T06:33:38;100749.63;;;20.41;57.19
50732;BME280;36700;50.488;2.544;2023-09-19T06:36:05;100746.09;;;20.40;57.26
50732;BME280;36700;50.488;2.544;2023-09-19T06:38:31;100747.19;;;20.39;56.96
50732;BME280;36700;50.488;2.544;2023-09-19T06:41:00;100747.19;;;20.39;57.23
50732;BME280;36700;50.488;2.544;2023-09-19T06:43:35;100748.81;;;20.40;56.99
50732;BME280;36700;50.488;2.544;2023-09-19T06:46:01;100738.41;;;20.37;56.86
50732;BME280;36700;50.488;2.544;2023-09-19T06:48:28;100744.44;;;20.39;56.80
50732;BME280;36700;50.488;2.544;2023-09-19T06:50:59;100744.44;;;20.39;56.73
50732;BME280;36700;50.488;2.544;2023-09-19T06:53:28;100737.31;;;20.38;57.31
50732;BME280;36700;50.488;2.544;2023-09-19T06:55:58;100739.25;;;20.38;56.74
50732;BME280;36700;50.488;2.544;2023-09-19T06:58:23;100748.78;;;20.35;57.13
50732;BME280;36700;50.488;2.544;2023-09-19T07:00:49;100754.00;;;20.37;56.81
50732;BME280;36700;50.488;2.544;2023-09-19T07:03:18;100743.88;;;20.37;56.94
50732;BME280;36700;50.488;2.544;2023-09-19T07:05:48;100741.13;;;20.37;56.77
50732;BME280;36700;50.488;2.544;2023-09-19T07:08:14;100754.00;;;20.37;57.07
50732;BME280;36700;50.488;2.544;2023-09-19T07:10:42;100751.53;;;20.35;57.49
50732;BME280;36700;50.488;2.544;2023-09-19T07:13:15;100754.78;;;20.37;56.93
50732;BME280;36700;50.488;2.544;2023-09-19T07:15:43;100749.91;;;20.39;56.44
50732;BME280;36700;50.488;2.544;2023-09-19T07:18:13;100752.09;;;20.42;57.15
50732;BME280;36700;50.488;2.544;2023-09-19T07:20:40;100745.81;;;20.42;56.98
50732;BME280;36700;50.488;2.544;2023-09-19T07:23:11;100747.72;;;20.41;56.98
50732;BME280;36700;50.488;2.544;2023-09-19T07:25:39;100748.28;;;20.43;56.71
50732;BME280;36700;50.488;2.544;2023-09-19T07:28:05;100744.44;;;20.44;56.90
50732;BME280;36700;50.488;2.544;2023-09-19T07:30:31;100760.28;;;20.42;56.46
50732;BME280;36700;50.488;2.544;2023-09-19T07:32:57;100728.06;;;20.39;57.02
50732;BME280;36700;50.488;2.544;2023-09-19T07:35:23;100750.44;;;20.41;56.78
50732;BME280;36700;50.488;2.544;2023-09-19T07:37:49;100745.25;;;20.40;56.97
50732;BME280;36700;50.488;2.544;2023-09-19T07:40:16;100745.25;;;20.40;56.49
50732;BME280;36700;50.488;2.544;2023-09-19T07:42:42;100745.50;;;20.38;56.96
50732;BME280;36700;50.488;2.544;2023-09-19T07:45:10;100748.81;;;20.40;57.14
50732;BME280;36700;50.488;2.544;2023-09-19T07:47:45;100745.25;;;20.40;56.99
50732;BME280;36700;50.488;2.544;2023-09-19T07:50:13;100731.84;;;20.38;57.09
50732;BME280;36700;50.488;2.544;2023-09-19T07:52:40;100725.03;;;20.41;57.23
50732;BME280;36700;50.488;2.544;2023-09-19T07:55:06;100738.69;;;20.41;56.84
50732;BME280;36700;50.488;2.544;2023-09-19T07:57:37;100724.25;;;20.40;57.30
50732;BME280;36700;50.488;2.544;2023-09-19T08:00:04;100726.41;;;20.38;56.48
50732;BME280;36700;50.488;2.544;2023-09-19T08:02:36;100722.59;;;20.39;57.03
50732;BME280;36700;50.488;2.544;2023-09-19T08:05:04;100716.03;;;20.40;57.01
50732;BME280;36700;50.488;2.544;2023-09-19T08:07:39;100717.13;;;20.39;57.06
50732;BME280;36700;50.488;2.544;2023-09-19T08:10:07;100718.19;;;20.38;57.23
50732;BME280;36700;50.488;2.544;2023-09-19T08:12:34;100716.84;;;20.41;57.05
50732;BME280;36700;50.488;2.544;2023-09-19T08:15:04;100711.97;;;20.43;57.00
50732;BME280;36700;50.488;2.544;2023-09-19T08:17:34;100714.94;;;20.41;56.95
50732;BME280;36700;50.488;2.544;2023-09-19T08:20:01;100708.66;;;20.41;56.55
50732;BME280;36700;50.488;2.544;2023-09-19T08:22:29;100704.03;;;20.41;57.07
50732;BME280;36700;50.488;2.544;2023-09-19T08:24:55;100707.59;;;20.42;56.57
50732;BME280;36700;50.488;2.544;2023-09-19T08:27:22;100706.75;;;20.41;56.94
50732;BME280;36700;50.488;2.544;2023-09-19T08:29:53;100703.47;;;20.44;57.01
50732;BME280;36700;50.488;2.544;2023-09-19T08:32:18;100712.50;;;20.45;56.45
50732;BME280;36700;50.488;2.544;2023-09-19T08:34:50;100699.69;;;20.45;56.38
50732;BME280;36700;50.488;2.544;2023-09-19T08:37:15;100711.66;;;20.44;56.34
50732;BME280;36700;50.488;2.544;2023-09-19T08:39:44;100709.22;;;20.43;56.50
50732;BME280;36700;50.488;2.544;2023-09-19T08:42:10;100701.03;;;20.43;56.70
50732;BME280;36700;50.488;2.544;2023-09-19T08:44:38;100695.84;;;20.47;56.64
50732;BME280;36700;50.488;2.544;2023-09-19T08:47:11;100699.69;;;20.45;56.87
50732;BME280;36700;50.488;2.544;2023-09-19T08:52:25;100697.75;;;20.46;56.58
50732;BME280;36700;50.488;2.544;2023-09-19T08:54:52;100702.13;;;20.47;56.34
50732;BME280;36700;50.488;2.544;2023-09-19T08:57:21;100705.41;;;20.49;56.52
50732;BME280;36700;50.488;2.544;2023-09-19T08:59:48;100699.13;;;20.49;56.49
50732;BME280;36700;50.488;2.544;2023-09-19T09:02:15;100707.59;;;20.47;56.67
50732;BME280;36700;50.488;2.544;2023-09-19T09:04:43;100698.59;;;20.47;56.92
50732;BME280;36700;50.488;2.544;2023-09-19T09:07:13;100712.25;;;20.47;56.81
50732;BME280;36700;50.488;2.544;2023-09-19T09:09:40;100702.94;;;20.48;56.54
50732;BME280;36700;50.488;2.544;2023-09-19T09:12:13;100695.84;;;20.47;56.73
50732;BME280;36700;50.488;2.544;2023-09-19T09:14:40;100704.84;;;20.47;56.98
50732;BME280;36700;50.488;2.544;2023-09-19T09:17:07;100702.13;;;20.47;57.00
50732;BME280;36700;50.488;2.544;2023-09-19T09:19:33;100701.06;;;20.48;56.88
50732;BME280;36700;50.488;2.544;2023-09-19T09:22:09;100698.59;;;20.47;56.92
50732;BME280;36700;50.488;2.544;2023-09-19T09:24:36;100694.22;;;20.45;56.74
50732;BME280;36700;50.488;2.544;2023-09-19T09:27:06;100689.56;;;20.46;56.64
50732;BME280;36700;50.488;2.544;2023-09-19T09:29:47;100688.47;;;20.47;56.82
50732;BME280;36700;50.488;2.544;2023-09-19T09:32:26;100693.38;;;20.45;56.45
50732;BME280;36700;50.488;2.544;2023-09-19T09:34:56;100689.81;;;20.44;56.70
50732;BME280;36700;50.488;2.544;2023-09-19T09:37:23;100695.03;;;20.46;56.69
50732;BME280;36700;50.488;2.544;2023-09-19T09:39:54;100687.09;;;20.44;57.05
50732;BME280;36700;50.488;2.544;2023-09-19T09:42:34;100696.94;;;20.45;57.07
50732;BME280;36700;50.488;2.544;2023-09-19T09:47:46;100690.66;;;20.45;56.99
50732;BME280;36700;50.488;2.544;2023-09-19T09:50:35;100690.66;;;20.45;57.19
50732;BME280;36700;50.488;2.544;2023-09-19T09:53:23;100690.66;;;20.45;57.00
50732;BME280;36700;50.488;2.544;2023-09-19T09:56:07;100690.66;;;20.45;57.09
50732;BME280;36700;50.488;2.544;2023-09-19T09:58:49;100682.72;;;20.43;56.97
50732;BME280;36700;50.488;2.544;2023-09-19T10:01:16;100695.84;;;20.47;57.25
50732;BME280;36700;50.488;2.544;2023-09-19T10:03:43;100688.19;;;20.49;56.99
50732;BME280;36700;50.488;2.544;2023-09-19T10:06:15;100696.41;;;20.49;57.03
50732;BME280;36700;50.488;2.544;2023-09-19T10:09:03;100708.97;;;20.50;56.84
50732;BME280;36700;50.488;2.544;2023-09-19T10:11:43;100697.25;;;20.54;56.57
50732;BME280;36700;50.488;2.544;2023-09-19T10:14:15;100689.03;;;20.59;56.35
50732;BME280;36700;50.488;2.544;2023-09-19T10:16:48;100689.88;;;20.65;55.85
50732;BME280;36700;50.488;2.544;2023-09-19T10:22:28;100695.09;;;20.77;55.92
50732;BME280;36700;50.488;2.544;2023-09-19T10:24:57;100713.44;;;20.82;55.44
50732;BME280;36700;50.488;2.544;2023-09-19T10:27:26;100701.97;;;20.85;55.45
50732;BME280;36700;50.488;2.544;2023-09-19T10:29:52;100692.94;;;20.90;55.35
50732;BME280;36700;50.488;2.544;2023-09-19T10:32:23;100702.00;;;20.90;55.66
50732;BME280;36700;50.488;2.544;2023-09-19T10:34:49;100699.53;;;20.94;55.69
50732;BME280;36700;50.488;2.544;2023-09-19T10:37:16;100695.69;;;20.95;55.43
50732;BME280;36700;50.488;2.544;2023-09-19T10:39:52;100694.88;;;20.99;55.04
50732;BME280;36700;50.488;2.544;2023-09-19T10:42:20;100692.16;;;20.99;55.46
50732;BME280;36700;50.488;2.544;2023-09-19T10:44:52;100704.44;;;21.02;55.41
50732;BME280;36700;50.488;2.544;2023-09-19T10:47:20;100683.94;;;21.05;55.26
50732;BME280;36700;50.488;2.544;2023-09-19T10:49:50;100681.78;;;21.07;55.30
50732;BME280;36700;50.488;2.544;2023-09-19T10:52:20;100701.47;;;21.09;55.17
50732;BME280;36700;50.488;2.544;2023-09-19T10:54:52;100687.53;;;21.10;54.87
50732;BME280;36700;50.488;2.544;2023-09-19T10:57:23;100687.25;;;21.12;54.98
50732;BME280;36700;50.488;2.544;2023-09-19T11:00:09;100687.22;;;21.17;54.82
50732;BME280;36700;50.488;2.544;2023-09-19T11:03:19;100688.06;;;21.18;54.72
50732;BME280;36700;50.488;2.544;2023-09-19T11:06:17;100681.50;;;21.19;54.98
50732;BME280;36700;50.488;2.544;2023-09-19T11:09:03;100701.16;;;21.21;54.90
50732;BME280;36700;50.488;2.544;2023-09-19T11:16:41;100690.53;;;21.24;55.15
50732;BME280;36700;50.488;2.544;2023-09-19T11:30:32;100667.56;;;21.25;54.61
50732;BME280;36700;50.488;2.544;2023-09-19T11:33:24;100669.47;;;21.25;55.01
50732;BME280;36700;50.488;2.544;2023-09-19T11:36:04;100664.56;;;21.27;54.79
50732;BME280;36700;50.488;2.544;2023-09-19T11:46:13;100664.56;;;21.27;55.02
50732;BME280;36700;50.488;2.544;2023-09-19T11:48:43;100677.13;;;21.28;55.13
50732;BME280;36700;50.488;2.544;2023-09-19T11:51:14;100661.53;;;21.29;55.24
50732;BME280;36700;50.488;2.544;2023-09-19T11:53:53;100670.81;;;21.28;55.25
50732;BME280;36700;50.488;2.544;2023-09-19T11:56:21;100666.19;;;21.28;55.21
50732;BME280;36700;50.488;2.544;2023-09-19T11:58:51;100671.94;;;21.27;55.21
50732;BME280;36700;50.488;2.544;2023-09-19T12:03:56;100677.13;;;21.28;55.01
50732;BME280;36700;50.488;2.544;2023-09-19T12:06:24;100686.69;;;21.31;55.30
50732;BME280;36700;50.488;2.544;2023-09-19T12:08:51;100683.41;;;21.29;54.98
50732;BME280;36700;50.488;2.544;2023-09-19T12:11:21;100678.75;;;21.29;55.35
50732;BME280;36700;50.488;2.544;2023-09-19T12:13:49;100682.59;;;21.33;55.14
50732;BME280;36700;50.488;2.544;2023-09-19T12:16:17;100664.00;;;21.30;55.22
50732;BME280;36700;50.488;2.544;2023-09-19T12:18:46;100670.28;;;21.31;55.10
50732;BME280;36700;50.488;2.544;2023-09-19T12:21:23;100675.75;;;21.31;55.33
50732;BME280;36700;50.488;2.544;2023-09-19T12:26:28;100673.84;;;21.31;55.21
50732;BME280;36700;50.488;2.544;2023-09-19T12:28:59;100667.56;;;21.31;55.17
50732;BME280;36700;50.488;2.544;2023-09-19T12:31:27;100664.00;;;21.30;55.05
50732;BME280;36700;50.488;2.544;2023-09-19T12:33:54;100654.97;;;21.30;55.34
50732;BME280;36700;50.488;2.544;2023-09-19T12:36:22;100658.53;;;21.30;55.31
50732;BME280;36700;50.488;2.544;2023-09-19T12:39:00;100651.16;;;21.31;55.38
50732;BME280;36700;50.488;2.544;2023-09-19T12:41:26;100652.22;;;21.30;55.34
50732;BME280;36700;50.488;2.544;2023-09-19T12:43:53;100657.69;;;21.30;55.21
50732;BME280;36700;50.488;2.544;2023-09-19T12:46:21;100653.06;;;21.30;55.30
50732;BME280;36700;50.488;2.544;2023-09-19T12:49:18;100653.88;;;21.31;55.34
50732;BME280;36700;50.488;2.544;2023-09-19T12:51:48;100659.63;;;21.29;55.06
50732;BME280;36700;50.488;2.544;2023-09-19T12:54:14;100662.34;;;21.29;54.93
50732;BME280;36700;50.488;2.544;2023-09-19T12:56:44;100661.53;;;21.29;54.89
50732;BME280;36700;50.488;2.544;2023-09-19T12:59:12;100662.34;;;21.29;55.38
50732;BME280;36700;50.488;2.544;2023-09-19T13:01:40;100669.72;;;21.29;55.09
50732;BME280;36700;50.488;2.544;2023-09-19T13:04:19;100659.88;;;21.28;55.32
50732;BME280;36700;50.488;2.544;2023-09-19T13:06:49;100661.81;;;21.27;55.24
50732;BME280;36700;50.488;2.544;2023-09-19T13:09:16;100661.81;;;21.27;55.58
50732;BME280;36700;50.488;2.544;2023-09-19T13:11:43;100672.19;;;21.25;55.34
50732;BME280;36700;50.488;2.544;2023-09-19T13:14:18;100670.28;;;21.25;55.56
50732;BME280;36700;50.488;2.544;2023-09-19T13:19:44;100668.66;;;21.24;55.33
50732;BME280;36700;50.488;2.544;2023-09-19T13:22:45;100680.41;;;21.25;55.69
50732;BME280;36700;50.488;2.544;2023-09-19T13:25:18;100670.56;;;21.24;55.25
50732;BME280;36700;50.488;2.544;2023-09-19T13:27:46;100659.63;;;21.24;55.23
50732;BME280;36700;50.488;2.544;2023-09-19T13:30:14;100658.00;;;21.23;55.56
50732;BME280;36700;50.488;2.544;2023-09-19T13:32:40;100664.25;;;21.23;55.37
50732;BME280;36700;50.488;2.544;2023-09-19T13:35:08;100660.72;;;21.23;55.71
50732;BME280;36700;50.488;2.544;2023-09-19T13:37:35;100651.41;;;21.19;55.44
50732;BME280;36700;50.488;2.544;2023-09-19T13:40:10;100654.69;;;21.21;55.79
50732;BME280;36700;50.488;2.544;2023-09-19T13:42:37;100657.16;;;21.22;55.41
50732;BME280;36700;50.488;2.544;2023-09-19T13:45:04;100656.06;;;21.23;55.40
50732;BME280;36700;50.488;2.544;2023-09-19T13:47:33;100653.06;;;21.20;55.41
50732;BME280;36700;50.488;2.544;2023-09-19T13:50:01;100656.34;;;21.22;55.54
50732;BME280;36700;50.488;2.544;2023-09-19T13:52:29;100655.53;;;21.21;55.40
50732;BME280;36700;50.488;2.544;2023-09-19T13:54:57;100653.88;;;21.20;55.70